createdAt,value
2018-11-06T00:01:13.893Z,56.07
2018-11-06T00:03:46.872Z,60.03
2018-11-06T00:06:15.008Z,57.70
2018-11-06T00:08:43.163Z,60.63
2018-11-06T00:11:12.008Z,57.53
2018-11-06T00:13:40.944Z,52.75
2018-11-06T00:16:10.037Z,55.50
2018-11-06T00:18:38.163Z,52.57
2018-11-06T00:21:06.344Z,55.27
2018-11-06T00:23:34.543Z,60.00
2018-11-06T00:26:02.654Z,54.77
2018-11-06T00:28:30.780Z,57.40
2018-11-06T00:30:58.879Z,56.80
2018-11-06T00:33:27.006Z,53.87
2018-11-06T00:35:55.071Z,56.90
2018-11-06T00:38:23.195Z,63.60
2018-11-06T00:40:51.304Z,56.10
2018-11-06T00:43:19.368Z,60.90
2018-11-06T00:45:47.521Z,56.97
2018-11-06T00:48:15.702Z,57.57
2018-11-06T00:50:43.812Z,59.17
2018-11-06T00:53:11.891Z,58.03
2018-11-06T00:55:39.964Z,59.57
2018-11-06T00:58:08.072Z,59.07
2018-11-06T01:00:36.149Z,54.90
2018-11-06T01:03:04.244Z,55.20
2018-11-06T01:05:32.339Z,54.57
2018-11-06T01:08:00.448Z,56.23
2018-11-06T01:10:28.551Z,54.30
2018-11-06T01:12:56.651Z,56.60
2018-11-06T01:15:24.755Z,56.37
2018-11-06T01:17:52.876Z,58.20
2018-11-06T01:20:20.988Z,55.57
2018-11-06T01:22:49.072Z,56.47
2018-11-06T01:25:17.268Z,59.37
2018-11-06T01:27:45.365Z,57.30
2018-11-06T01:30:15.805Z,55.43
2018-11-06T01:32:44.595Z,57.30
2018-11-06T01:35:13.522Z,63.23
2018-11-06T01:37:42.501Z,60.98
2018-11-06T01:40:12.628Z,60.83
2018-11-06T01:42:41.092Z,59.90
2018-11-06T01:45:11.164Z,61.30
2018-11-06T01:47:39.543Z,59.30
2018-11-06T01:50:08.829Z,55.17
2018-11-06T01:52:36.990Z,59.90
2018-11-06T01:55:05.421Z,58.73
2018-11-06T01:57:33.541Z,56.90
2018-11-06T02:00:01.705Z,62.40
2018-11-06T02:02:29.857Z,58.83
2018-11-06T02:04:57.989Z,60.88
2018-11-06T02:07:26.117Z,56.20
2018-11-06T02:09:54.249Z,58.10
2018-11-06T02:12:22.387Z,59.60
2018-11-06T02:14:50.551Z,62.62
2018-11-06T02:17:18.709Z,60.30
2018-11-06T02:19:46.874Z,57.38
2018-11-06T02:22:15.013Z,55.87
2018-11-06T02:24:43.193Z,58.10
2018-11-06T02:27:11.325Z,56.25
2018-11-06T02:29:39.450Z,58.73
2018-11-06T02:32:07.587Z,57.20
2018-11-06T02:34:35.718Z,58.07
2018-11-06T02:37:03.863Z,55.87
2018-11-06T02:39:31.995Z,61.33
2018-11-06T02:42:00.100Z,56.45
2018-11-06T02:44:28.209Z,64.13
2018-11-06T02:46:56.332Z,63.53
2018-11-06T02:49:24.478Z,60.73
2018-11-06T02:51:52.632Z,57.47
2018-11-06T02:54:20.795Z,58.87
2018-11-06T02:56:48.946Z,54.10
2018-11-06T02:59:17.107Z,60.10
2018-11-06T03:01:45.229Z,60.33
2018-11-06T03:04:13.428Z,56.00
2018-11-06T03:06:41.577Z,56.67
2018-11-06T03:09:09.730Z,62.80
2018-11-06T03:11:38.137Z,59.30
2018-11-06T03:14:06.267Z,58.50
2018-11-06T03:16:34.369Z,52.97
2018-11-06T03:19:02.498Z,56.27
2018-11-06T03:21:30.614Z,54.90
2018-11-06T03:23:58.768Z,54.33
2018-11-06T03:26:27.612Z,63.73
2018-11-06T03:28:55.784Z,55.38
2018-11-06T03:31:23.932Z,60.10
2018-11-06T03:33:52.056Z,64.12
2018-11-06T03:36:20.197Z,57.98
2018-11-06T03:38:48.379Z,56.05
2018-11-06T03:41:16.505Z,61.53
2018-11-06T03:43:45.052Z,59.95
2018-11-06T03:46:13.179Z,68.00
2018-11-06T03:48:41.289Z,66.97
2018-11-06T03:51:09.439Z,69.00
2018-11-06T03:53:37.568Z,71.87
2018-11-06T03:56:06.312Z,68.33
2018-11-06T03:58:34.477Z,71.80
2018-11-06T04:01:02.619Z,71.97
2018-11-06T04:03:30.769Z,71.40
2018-11-06T04:05:58.933Z,72.80
2018-11-06T04:08:27.104Z,69.87
2018-11-06T04:10:55.257Z,73.77
2018-11-06T04:13:23.394Z,78.03
2018-11-06T04:15:51.573Z,74.27
2018-11-06T04:18:19.709Z,78.27
2018-11-06T04:20:47.867Z,79.10
2018-11-06T04:23:16.090Z,78.67
2018-11-06T04:25:44.254Z,84.37
2018-11-06T04:28:12.376Z,85.70
2018-11-06T04:30:40.542Z,76.10
2018-11-06T04:33:08.716Z,79.50
2018-11-06T04:35:36.861Z,75.97
2018-11-06T04:38:05.102Z,77.47
2018-11-06T04:40:33.237Z,79.07
2018-11-06T04:43:01.388Z,72.37
2018-11-06T04:45:29.504Z,73.53
2018-11-06T04:47:57.657Z,74.50
2018-11-06T04:50:26.014Z,88.47
2018-11-06T04:52:54.180Z,67.85
2018-11-06T04:55:22.316Z,74.82
2018-11-06T04:57:50.517Z,80.72
2018-11-06T05:00:18.713Z,77.07
2018-11-06T05:02:46.823Z,72.20
2018-11-06T05:05:14.981Z,71.70
2018-11-06T05:07:43.138Z,67.10
2018-11-06T05:10:14.347Z,66.87
2018-11-06T05:12:42.497Z,63.60
2018-11-06T05:15:13.781Z,62.67
2018-11-06T05:17:42.031Z,69.60
2018-11-06T05:20:13.158Z,70.40
2018-11-06T05:22:41.374Z,63.63
2018-11-06T05:25:09.846Z,66.87
2018-11-06T05:27:38.377Z,70.62
2018-11-06T05:30:06.943Z,72.50
2018-11-06T05:32:35.123Z,69.03
2018-11-06T05:35:03.300Z,66.40
2018-11-06T05:37:31.445Z,64.80
2018-11-06T05:40:11.032Z,69.73
2018-11-06T05:42:39.161Z,65.00
2018-11-06T05:45:07.314Z,69.13
2018-11-06T05:47:35.466Z,64.23
2018-11-06T05:50:03.695Z,62.60
2018-11-06T05:52:31.926Z,60.80
2018-11-06T05:55:00.079Z,68.37
2018-11-06T05:57:28.241Z,64.95
2018-11-06T05:59:56.403Z,62.65
2018-11-06T06:02:24.560Z,63.30
2018-11-06T06:04:52.772Z,59.87
2018-11-06T06:07:20.937Z,57.17
2018-11-06T06:09:49.224Z,57.00
2018-11-06T06:12:17.338Z,58.67
2018-11-06T06:14:45.497Z,56.40
2018-11-06T06:17:13.745Z,53.63
2018-11-06T06:19:41.800Z,50.07
2018-11-06T06:22:09.970Z,49.30
2018-11-06T06:24:38.100Z,50.10
2018-11-06T06:27:06.227Z,49.90
2018-11-06T06:29:34.446Z,50.60
2018-11-06T06:32:02.604Z,50.37
2018-11-06T06:34:30.865Z,47.37
2018-11-06T06:36:58.979Z,47.47
2018-11-06T06:39:27.122Z,51.13
2018-11-06T06:41:55.278Z,47.20
2018-11-06T06:44:23.416Z,47.33
2018-11-06T06:46:51.587Z,47.83
2018-11-06T06:49:19.718Z,46.10
2018-11-06T06:51:47.832Z,49.97
2018-11-06T06:54:16.010Z,46.92
2018-11-06T06:56:44.106Z,44.50
2018-11-06T06:59:12.251Z,46.23
2018-11-06T07:01:40.373Z,42.78
2018-11-06T07:04:08.729Z,44.70
2018-11-06T07:06:36.890Z,43.95
2018-11-06T07:09:07.627Z,48.15
2018-11-06T07:11:35.963Z,46.95
2018-11-06T07:14:04.121Z,46.73
2018-11-06T07:16:32.240Z,47.75
2018-11-06T07:19:00.364Z,46.90
2018-11-06T07:21:28.527Z,48.45
2018-11-06T07:23:56.726Z,50.23
2018-11-06T07:26:24.844Z,50.55
2018-11-06T07:28:53.064Z,50.67
2018-11-06T07:31:21.186Z,51.02
2018-11-06T07:33:49.337Z,52.05
2018-11-06T07:36:17.469Z,54.67
2018-11-06T07:38:45.582Z,56.45
2018-11-06T07:41:13.788Z,58.17
2018-11-06T07:43:41.886Z,55.45
2018-11-06T07:46:10.020Z,52.60
2018-11-06T07:48:38.191Z,52.55
2018-11-06T07:51:06.370Z,54.60
2018-11-06T07:53:34.534Z,53.47
2018-11-06T07:56:02.698Z,52.67
2018-11-06T07:58:30.841Z,49.43
2018-11-06T08:00:58.981Z,52.00
2018-11-06T08:03:27.167Z,50.30
2018-11-06T08:05:55.310Z,52.40
2018-11-06T08:08:23.429Z,48.50
2018-11-06T08:10:51.585Z,47.80
2018-11-06T08:13:19.712Z,45.93
2018-11-06T08:15:47.910Z,47.77
2018-11-06T08:18:16.095Z,48.33
2018-11-06T08:20:44.315Z,49.37
2018-11-06T08:23:12.443Z,52.80
2018-11-06T08:25:40.604Z,49.97
2018-11-06T08:28:08.757Z,52.97
2018-11-06T08:30:36.933Z,49.60
2018-11-06T08:33:05.201Z,51.57
2018-11-06T08:35:33.365Z,50.87
2018-11-06T08:38:01.517Z,49.70
2018-11-06T08:40:29.637Z,52.53
2018-11-06T08:42:57.753Z,49.40
2018-11-06T08:45:25.925Z,46.23
2018-11-06T08:47:54.136Z,47.70
2018-11-06T08:50:22.248Z,49.20
2018-11-06T08:52:50.406Z,49.00
2018-11-06T08:55:18.547Z,48.53
2018-11-06T08:57:46.898Z,49.48
2018-11-06T09:00:17.330Z,46.10
2018-11-06T09:02:46.635Z,47.35
2018-11-06T09:05:15.743Z,47.40
2018-11-06T09:07:44.292Z,50.63
2018-11-06T09:10:13.532Z,47.85
2018-11-06T09:12:41.696Z,47.97
2018-11-06T09:15:11.744Z,46.67
2018-11-06T09:17:40.096Z,48.93
2018-11-06T09:20:09.610Z,49.53
2018-11-06T09:22:37.762Z,48.43
2018-11-06T09:25:07.188Z,47.77
2018-11-06T09:27:35.326Z,50.43
2018-11-06T09:30:03.469Z,47.30
2018-11-06T09:32:31.620Z,51.03
2018-11-06T09:34:59.803Z,49.77
2018-11-06T09:37:27.927Z,49.53
2018-11-06T09:39:56.048Z,47.90
2018-11-06T09:42:24.213Z,49.53
2018-11-06T09:44:52.390Z,49.03
2018-11-06T09:47:20.583Z,47.67
2018-11-06T09:49:48.688Z,45.80
2018-11-06T09:52:16.813Z,46.47
2018-11-06T09:54:44.950Z,46.20
2018-11-06T09:57:13.085Z,45.60
2018-11-06T09:59:41.279Z,46.53
2018-11-06T10:02:09.482Z,46.33
2018-11-06T10:04:37.650Z,44.70
2018-11-06T10:07:06.612Z,45.10
2018-11-06T10:09:34.546Z,46.10
2018-11-06T10:12:02.701Z,43.00
2018-11-06T10:14:30.845Z,42.40
2018-11-06T10:16:58.996Z,42.87
2018-11-06T10:19:27.136Z,40.83
2018-11-06T10:21:55.279Z,42.17
2018-11-06T10:24:23.419Z,41.73
2018-11-06T10:26:51.559Z,41.13
2018-11-06T10:29:19.719Z,39.87
2018-11-06T10:31:47.905Z,40.60
2018-11-06T10:34:16.070Z,39.17
2018-11-06T10:36:44.256Z,40.00
2018-11-06T10:39:13.723Z,38.50
2018-11-06T10:41:41.870Z,40.27
2018-11-06T10:44:10.069Z,37.20
2018-11-06T10:46:38.670Z,36.83
2018-11-06T10:49:07.665Z,37.55
2018-11-06T10:51:35.869Z,35.63
2018-11-06T10:54:03.993Z,36.90
2018-11-06T10:56:32.159Z,37.15
2018-11-06T10:59:00.324Z,40.45
2018-11-06T11:01:33.955Z,36.80
2018-11-06T11:04:07.452Z,36.37
2018-11-06T11:06:35.570Z,37.33
2018-11-06T11:09:04.342Z,37.25
2018-11-06T11:11:32.472Z,38.53
2018-11-06T11:14:00.629Z,37.78
2018-11-06T11:16:28.757Z,37.37
2018-11-06T11:18:56.933Z,38.37
2018-11-06T11:21:25.081Z,36.13
2018-11-06T11:23:53.201Z,35.83
2018-11-06T11:26:21.343Z,35.60
2018-11-06T11:28:49.470Z,36.30
2018-11-06T11:31:17.656Z,33.80
2018-11-06T11:33:45.802Z,35.95
2018-11-06T11:36:13.902Z,35.50
2018-11-06T11:38:42.031Z,38.20
2018-11-06T11:41:10.219Z,33.40
2018-11-06T11:43:39.600Z,35.65
2018-11-06T11:46:07.765Z,34.67
2018-11-06T11:48:35.914Z,35.27
2018-11-06T11:51:04.074Z,34.03
2018-11-06T11:53:32.190Z,35.30
2018-11-06T11:56:00.352Z,33.50
2018-11-06T11:58:28.501Z,35.70
2018-11-06T12:00:56.667Z,35.90
2018-11-06T12:03:24.845Z,33.07
2018-11-06T12:05:53.042Z,34.30
2018-11-06T12:08:21.184Z,33.57
2018-11-06T12:10:49.349Z,30.13
2018-11-06T12:13:17.484Z,30.07
2018-11-06T12:15:45.601Z,31.60
2018-11-06T12:18:13.793Z,31.87
2018-11-06T12:20:41.862Z,31.10
2018-11-06T12:23:10.009Z,30.53
2018-11-06T12:25:38.295Z,30.20
2018-11-06T12:28:06.365Z,29.53
2018-11-06T12:30:34.510Z,31.05
2018-11-06T12:33:02.641Z,31.37
2018-11-06T12:35:30.966Z,30.53
2018-11-06T12:37:59.123Z,27.95
2018-11-06T12:40:27.342Z,29.60
2018-11-06T12:42:55.505Z,32.23
2018-11-06T12:45:23.605Z,29.97
2018-11-06T12:47:51.760Z,30.27
2018-11-06T12:50:19.961Z,28.85
2018-11-06T12:52:48.031Z,32.40
2018-11-06T12:55:16.687Z,30.90
2018-11-06T12:57:45.056Z,29.57
2018-11-06T13:00:15.901Z,28.60
2018-11-06T13:02:44.064Z,28.17
2018-11-06T13:05:12.265Z,29.27
2018-11-06T13:07:41.462Z,28.73
2018-11-06T13:10:10.456Z,27.43
2018-11-06T13:12:39.055Z,28.73
2018-11-06T13:15:07.738Z,27.97
2018-11-06T13:17:36.466Z,27.35
2018-11-06T13:20:05.972Z,30.90
2018-11-06T13:22:34.118Z,27.83
2018-11-06T13:25:02.249Z,28.90
2018-11-06T13:27:30.405Z,30.10
2018-11-06T13:29:58.531Z,29.63
2018-11-06T13:32:26.793Z,29.53
2018-11-06T13:34:54.862Z,29.20
2018-11-06T13:37:23.005Z,29.63
2018-11-06T13:39:51.150Z,30.77
2018-11-06T13:42:19.311Z,29.00
2018-11-06T13:44:47.715Z,29.20
2018-11-06T13:47:15.596Z,29.30
2018-11-06T13:49:43.706Z,29.67
2018-11-06T13:52:11.902Z,28.93
2018-11-06T13:54:40.010Z,28.80
2018-11-06T13:57:08.430Z,28.23
2018-11-06T13:59:36.577Z,28.60
2018-11-06T14:02:05.031Z,29.83
2018-11-06T14:04:33.188Z,29.53
2018-11-06T14:07:01.374Z,28.63
2018-11-06T14:09:29.518Z,28.43
2018-11-06T14:11:57.654Z,28.77
2018-11-06T14:14:25.813Z,27.90
2018-11-06T14:16:53.962Z,28.67
2018-11-06T14:19:22.078Z,27.97
2018-11-06T14:21:50.215Z,27.90
2018-11-06T14:24:18.367Z,28.27
2018-11-06T14:26:46.534Z,27.00
2018-11-06T14:29:14.685Z,26.82
2018-11-06T14:31:42.817Z,26.35
2018-11-06T14:34:10.970Z,28.20
2018-11-06T14:36:39.138Z,27.55
2018-11-06T14:39:08.023Z,29.45
2018-11-06T14:41:36.182Z,28.00
2018-11-06T14:44:04.330Z,28.85
2018-11-06T14:46:32.457Z,28.73
2018-11-06T14:49:00.666Z,27.40
2018-11-06T14:51:28.755Z,31.70
2018-11-06T14:53:56.912Z,29.20
2018-11-06T14:56:25.037Z,29.50
2018-11-06T14:58:53.189Z,28.13
2018-11-06T15:01:21.382Z,28.73
2018-11-06T15:03:49.592Z,28.77
2018-11-06T15:06:17.786Z,29.40
2018-11-06T15:08:45.918Z,28.00
2018-11-06T15:11:14.070Z,30.00
2018-11-06T15:13:42.665Z,30.13
2018-11-06T15:16:10.794Z,30.07
2018-11-06T15:18:38.955Z,29.83
2018-11-06T15:21:07.066Z,29.63
2018-11-06T15:23:35.189Z,29.20
2018-11-06T15:26:03.324Z,30.70
2018-11-06T15:28:31.454Z,29.70
2018-11-06T15:30:59.578Z,29.37
2018-11-06T15:33:27.742Z,31.20
2018-11-06T15:35:55.880Z,28.45
2018-11-06T15:38:23.997Z,29.80
2018-11-06T15:40:52.209Z,30.27
2018-11-06T15:43:20.297Z,31.30
2018-11-06T15:45:48.434Z,29.77
2018-11-06T15:48:16.591Z,28.07
2018-11-06T15:50:44.854Z,30.80
2018-11-06T15:53:13.032Z,33.33
2018-11-06T15:55:41.170Z,32.97
2018-11-06T15:58:09.330Z,32.40
2018-11-06T16:00:37.539Z,30.83
2018-11-06T16:03:05.618Z,32.70
2018-11-06T16:05:33.821Z,33.40
2018-11-06T16:08:01.950Z,35.17
2018-11-06T16:10:30.124Z,36.70
2018-11-06T16:12:58.263Z,34.77
2018-11-06T16:15:26.465Z,37.37
2018-11-06T16:17:54.605Z,34.30
2018-11-06T16:20:22.796Z,31.13
2018-11-06T16:22:51.001Z,33.43
2018-11-06T16:25:19.805Z,33.90
2018-11-06T16:27:48.189Z,29.95
2018-11-06T16:30:18.618Z,33.08
2018-11-06T16:32:46.807Z,35.13
2018-11-06T16:35:16.205Z,37.78
2018-11-06T16:37:44.919Z,37.57
2018-11-06T16:40:13.679Z,36.30
2018-11-06T16:42:42.677Z,35.27
2018-11-06T16:45:13.629Z,36.35
2018-11-06T16:47:42.326Z,38.40
2018-11-06T16:50:11.725Z,37.20
2018-11-06T16:52:39.881Z,39.20
2018-11-06T16:55:08.620Z,40.88
2018-11-06T16:57:36.867Z,41.77
2018-11-06T17:00:06.134Z,39.43
2018-11-06T17:02:34.134Z,40.27
2018-11-06T17:05:02.262Z,37.30
2018-11-06T17:07:30.437Z,38.53
2018-11-06T17:09:58.582Z,40.50
2018-11-06T17:12:26.797Z,39.13
2018-11-06T17:14:54.934Z,43.23
2018-11-06T17:17:23.176Z,43.60
2018-11-06T17:19:51.261Z,39.93
2018-11-06T17:22:19.389Z,42.00
2018-11-06T17:24:47.536Z,41.70
2018-11-06T17:27:15.643Z,41.20
2018-11-06T17:29:43.921Z,43.83
2018-11-06T17:32:12.080Z,42.37
2018-11-06T17:34:40.290Z,39.90
2018-11-06T17:37:08.401Z,42.87
2018-11-06T17:39:36.648Z,42.60
2018-11-06T17:42:04.734Z,45.73
2018-11-06T17:44:32.860Z,41.10
2018-11-06T17:47:01.026Z,45.60
2018-11-06T17:49:29.132Z,43.47
2018-11-06T17:51:57.327Z,44.70
2018-11-06T17:54:25.421Z,43.67
2018-11-06T17:56:53.547Z,40.33
2018-11-06T17:59:21.722Z,44.23
2018-11-06T18:01:49.952Z,41.30
2018-11-06T18:04:18.273Z,39.48
2018-11-06T18:06:46.289Z,42.40
2018-11-06T18:09:14.425Z,42.80
2018-11-06T18:11:43.021Z,41.23
2018-11-06T18:14:11.182Z,42.67
2018-11-06T18:16:39.325Z,41.70
2018-11-06T18:19:07.491Z,42.03
2018-11-06T18:21:35.709Z,40.15
2018-11-06T18:24:03.957Z,41.60
2018-11-06T18:26:32.122Z,37.90
2018-11-06T18:29:00.244Z,42.93
2018-11-06T18:31:28.395Z,41.50
2018-11-06T18:33:57.213Z,44.70
2018-11-06T18:36:25.338Z,47.13
2018-11-06T18:38:53.489Z,45.80
2018-11-06T18:41:22.446Z,48.25
2018-11-06T18:43:50.602Z,45.78
2018-11-06T18:46:18.737Z,44.08
2018-11-06T18:48:46.967Z,43.87
2018-11-06T18:51:15.082Z,46.13
2018-11-06T18:53:43.206Z,45.17
2018-11-06T18:56:11.363Z,42.20
2018-11-06T18:58:39.532Z,45.17
2018-11-06T19:01:07.701Z,41.03
2018-11-06T19:03:35.917Z,39.13
2018-11-06T19:06:04.157Z,41.70
2018-11-06T19:08:32.437Z,41.30
2018-11-06T19:11:00.596Z,38.00
2018-11-06T19:13:28.738Z,41.40
2018-11-06T19:15:56.889Z,40.83
2018-11-06T19:18:25.027Z,39.10
2018-11-06T19:20:53.126Z,39.43
2018-11-06T19:23:21.262Z,38.80
2018-11-06T19:25:49.421Z,37.77
2018-11-06T19:28:17.537Z,41.27
2018-11-06T19:30:45.685Z,42.00
2018-11-06T19:33:13.903Z,41.77
2018-11-06T19:35:42.094Z,42.40
2018-11-06T19:38:10.265Z,43.87
2018-11-06T19:40:38.525Z,43.50
2018-11-06T19:43:06.588Z,43.07
2018-11-06T19:45:34.717Z,44.43
2018-11-06T19:48:02.933Z,40.93
2018-11-06T19:50:31.067Z,41.23
2018-11-06T19:52:59.242Z,40.30
2018-11-06T19:55:27.405Z,40.67
2018-11-06T19:57:56.011Z,38.93
2018-11-06T20:00:24.271Z,38.23
2018-11-06T20:02:53.479Z,35.73
2018-11-06T20:05:21.855Z,32.93
2018-11-06T20:07:51.030Z,30.77
2018-11-06T20:10:20.756Z,31.75
2018-11-06T20:12:50.141Z,32.30
2018-11-06T20:15:18.505Z,33.60
2018-11-06T20:17:47.119Z,37.23
2018-11-06T20:20:16.761Z,37.67
2018-11-06T20:22:45.498Z,37.28
2018-11-06T20:25:13.877Z,37.40
2018-11-06T20:27:42.364Z,39.63
2018-11-06T20:30:13.729Z,40.43
2018-11-06T20:32:42.209Z,41.90
2018-11-06T20:35:11.441Z,36.80
2018-11-06T20:37:39.634Z,39.48
2018-11-06T20:40:11.055Z,39.50
2018-11-06T20:42:39.603Z,38.10
2018-11-06T20:45:08.938Z,38.10
2018-11-06T20:47:37.173Z,37.65
2018-11-06T20:50:10.378Z,37.40
2018-11-06T20:52:38.586Z,38.00
2018-11-06T20:55:07.434Z,37.40
2018-11-06T20:57:35.993Z,36.70
2018-11-06T21:00:04.479Z,35.83
2018-11-06T21:02:32.534Z,37.03
2018-11-06T21:05:00.749Z,37.70
2018-11-06T21:07:29.130Z,37.40
2018-11-06T21:09:57.508Z,40.43
2018-11-06T21:12:25.868Z,40.60
2018-11-06T21:14:54.095Z,42.47
2018-11-06T21:17:22.315Z,40.80
2018-11-06T21:19:50.706Z,41.73
2018-11-06T21:22:18.802Z,41.33
2018-11-06T21:24:47.028Z,39.10
2018-11-06T21:27:15.274Z,39.48
2018-11-06T21:29:43.381Z,40.10
2018-11-06T21:32:11.589Z,42.73
2018-11-06T21:34:39.721Z,43.43
2018-11-06T21:37:07.845Z,44.90
2018-11-06T21:39:35.989Z,44.97
2018-11-06T21:42:04.141Z,46.10
2018-11-06T21:44:33.048Z,42.80
2018-11-06T21:47:01.229Z,40.63
2018-11-06T21:49:29.353Z,36.93
2018-11-06T21:51:57.500Z,38.20
2018-11-06T21:54:25.680Z,37.83
2018-11-06T21:56:53.805Z,41.77
2018-11-06T21:59:21.986Z,42.03
2018-11-06T22:01:50.193Z,43.83
2018-11-06T22:04:18.370Z,41.90
2018-11-06T22:06:46.547Z,48.67
2018-11-06T22:09:14.705Z,45.93
2018-11-06T22:11:42.832Z,45.50
2018-11-06T22:14:10.984Z,43.40
2018-11-06T22:16:39.113Z,42.73
2018-11-06T22:19:07.281Z,46.70
2018-11-06T22:21:35.493Z,44.07
2018-11-06T22:24:03.609Z,45.00
2018-11-06T22:26:31.758Z,41.13
2018-11-06T22:28:59.914Z,47.50
2018-11-06T22:31:28.126Z,48.00
2018-11-06T22:33:56.234Z,44.40
2018-11-06T22:36:24.370Z,44.50
2018-11-06T22:38:52.498Z,45.92
2018-11-06T22:41:20.744Z,46.00
2018-11-06T22:43:49.342Z,40.30
2018-11-06T22:46:17.513Z,42.13
2018-11-06T22:48:45.664Z,39.40
2018-11-06T22:51:13.834Z,41.67
2018-11-06T22:53:42.201Z,40.20
2018-11-06T22:56:10.345Z,40.60
2018-11-06T22:58:38.551Z,40.70
2018-11-06T23:01:12.151Z,37.30
2018-11-06T23:03:40.873Z,38.78
2018-11-06T23:06:09.258Z,37.67
2018-11-06T23:08:37.253Z,38.95
2018-11-06T23:11:05.612Z,44.67
2018-11-06T23:13:33.818Z,43.60
2018-11-06T23:16:01.949Z,47.03
2018-11-06T23:18:30.077Z,43.50
2018-11-06T23:20:58.257Z,42.47
2018-11-06T23:23:26.385Z,42.70
2018-11-06T23:25:54.542Z,48.33
2018-11-06T23:28:22.718Z,46.43
2018-11-06T23:30:50.872Z,53.17
2018-11-06T23:33:19.006Z,49.07
2018-11-06T23:35:47.162Z,47.17
2018-11-06T23:38:15.330Z,44.27
2018-11-06T23:40:43.502Z,43.42
2018-11-06T23:43:11.649Z,43.75
2018-11-06T23:45:39.788Z,50.07
2018-11-06T23:48:07.928Z,52.35
2018-11-06T23:50:36.077Z,45.58
2018-11-06T23:53:04.581Z,48.30
2018-11-06T23:55:32.685Z,44.40
2018-11-06T23:58:01.620Z,45.07
